DW7177 Weather Reports


time (UTC)temp
F
wind
direction
speed
knots
gust
knots
rain 1hr
in
rain 24hr
in
rain mn
in
humidity
%
barometer
mb
20260902174003 61 154 0.0 4.3 0.00 0.03 0.03 92 1010.0
20260902173603 61 154 0.0 4.3 0.00 0.03 0.03 92 1010.1
20260902173203 61 151 0.9 5.2 0.00 0.03 0.03 92 1010.1
20260902172803 61 149 0.9 5.2 0.00 0.03 0.03 92 1010.1
20260902172403 61 148 0.9 5.2 0.00 0.03 0.03 92 1010.1
20260902172004 61 145 0.0 3.5 0.00 0.03 0.03 91 1010.1
20260902171603 61 145 0.0 3.5 0.00 0.03 0.03 91 1010.1
20260902171203 61 147 0.9 3.5 0.00 0.03 0.03 91 1010.2
20260902171018 61 147 0.9 3.5 0.00 0.03 0.03 91 1010.2
20260902170403 61 148 0.9 3.5 0.00 0.03 0.03 90 1010.4
20260902170003 61 148 0.0 2.6 0.00 0.03 0.03 90 1010.5
20260902165817 61 148 0.9 4.3 0.00 0.03 0.03 90 1010.5
20260902165203 61 149 0.9 4.3 0.00 0.03 0.03 90 1010.6
20260902165017 61 149 0.9 4.3 0.00 0.03 0.03 90 1010.6
20260902164618 61 149 0.9 4.3 0.00 0.03 0.03 90 1010.8
20260902164003 61 149 0.9 5.2 0.00 0.03 0.03 90 1010.8
20260902163603 61 148 0.9 5.2 0.00 0.03 0.03 90 1010.9
20260902163203 61 148 0.9 3.5 0.00 0.03 0.03 89 1010.9
20260902162803 61 146 0.9 5.2 0.00 0.03 0.03 89 1011.0
20260902162618 61 142 0.9 5.2 0.00 0.03 0.03 89 1011.0
20260902162004 61 137 0.9 6.1 0.00 0.03 0.03 89 1011.1
20260902161816 61 134 0.9 6.1 0.00 0.03 0.03 88 1011.1
20260902161203 61 144 0.9 6.1 0.00 0.03 0.03 89 1011.1
20260902160803 61 152 0.9 6.1 0.00 0.03 0.03 89 1011.2
20260902160617 61 157 0.9 4.3 0.01 0.03 0.03 89 1011.3
20260902160004 61 158 0.9 6.1 0.01 0.03 0.03 89 1011.4
20260902155603 61 161 0.9 6.1 0.01 0.03 0.03 89 1011.4
20260902155203 61 162 0.9 6.1 0.01 0.03 0.03 88 1011.5
20260902154803 61 164 0.0 3.5 0.01 0.03 0.03 89 1011.6
20260902154617 61 164 0.9 4.3 0.01 0.03 0.03 89 1011.6
20260902154003 61 187 0.9 4.3 0.01 0.03 0.03 88 1011.7
20260902153603 61 203 0.9 6.1 0.01 0.03 0.03 88 1011.7
20260902153203 61 208 0.9 6.1 0.01 0.03 0.03 89 1011.8
20260902152803 61 208 0.9 4.3 0.01 0.03 0.03 88 1011.8
20260902152403 61 208 0.9 4.3 0.01 0.03 0.03 89 1011.8
20260902152003 61 208 0.0 2.6 0.01 0.03 0.03 89 1011.7
20260902151603 61 208 0.0 4.3 0.01 0.03 0.03 89 1011.8
20260902151416 61 208 0.0 4.3 0.01 0.03 0.03 89 1011.8
20260902150803 61 208 1.7 7.0 0.01 0.03 0.03 88 1011.9
20260902150403 61 208 1.7 7.0 0.00 0.02 0.02 87 1012.1
20260902150003 61 210 2.6 8.7 0.01 0.02 0.02 87 1012.1
20260902145603 61 206 2.6 8.7 0.01 0.02 0.02 87 1012.1
20260902145203 62 206 1.7 8.7 0.01 0.02 0.02 87 1012.2
20260902144803 62 213 1.7 7.0 0.01 0.02 0.02 88 1012.2
20260902144403 62 213 0.9 7.0 0.01 0.02 0.02 88 1012.2
20260902144003 62 213 0.9 6.1 0.01 0.02 0.02 87 1012.3
20260902143603 62 213 0.9 7.0 0.01 0.02 0.02 88 1012.4
20260902143418 62 213 0.9 7.0 0.01 0.02 0.02 88 1012.4
20260902142803 62 213 0.9 6.1 0.01 0.02 0.02 88 1012.4
20260902142403 62 213 0.0 7.0 0.01 0.02 0.02 89 1012.5
20260902142003 62 213 0.9 7.0 0.01 0.02 0.02 88 1012.6
20260902141603 61 213 0.0 6.1 0.01 0.02 0.02 88 1012.6
20260902141203 61 213 0.9 7.8 0.01 0.02 0.02 88 1012.6
20260902140803 61 213 0.9 7.8 0.01 0.02 0.02 86 1012.6
20260902140617 61 213 0.9 7.8 0.01 0.02 0.02 86 1012.7
20260902140217 61 213 1.7 7.0 0.01 0.02 0.02 85 1012.8
20260902135603 62 213 2.6 9.6 0.00 0.02 0.02 84 1012.7
20260902135203 62 213 2.6 9.6 0.00 0.02 0.02 83 1012.7
20260902134803 62 211 1.7 7.8 0.00 0.02 0.02 83 1012.7
20260902134403 62 209 1.7 9.6 0.00 0.02 0.02 83 1012.7
20260902134003 62 207 1.7 9.6 0.00 0.02 0.02 82 1012.8
20260902133603 62 207 1.7 9.6 0.00 0.02 0.02 83 1012.8
20260902133203 63 208 1.7 6.1 0.00 0.02 0.02 83 1012.8
20260902132803 63 209 2.6 7.0 0.00 0.02 0.02 82 1012.8
20260902132403 63 211 2.6 7.0 0.00 0.02 0.02 82 1013.0
20260902132003 63 212 2.6 7.8 0.00 0.02 0.02 82 1013.0
20260902131603 63 212 2.6 7.8 0.00 0.02 0.02 81 1013.1
20260902131203 63 213 3.5 11.3 0.00 0.02 0.02 80 1013.1
20260902130803 63 215 1.7 11.3 0.00 0.02 0.02 78 1013.2
20260902130403 63 224 1.7 10.4 0.00 0.02 0.02 78 1013.2
20260902130003 63 224 2.6 10.4 0.00 0.02 0.02 79 1013.2
20260902125603 64 225 2.6 10.4 0.00 0.02 0.02 77 1013.3
20260902125203 64 225 1.7 6.1 0.00 0.02 0.02 78 1013.3
20260902124803 64 225 1.7 6.1 0.00 0.02 0.02 81 1013.3
20260902124403 64 226 2.6 7.0 0.00 0.02 0.02 80 1013.2
20260902124003 64 226 1.7 7.0 0.00 0.02 0.02 79 1013.2
20260902123603 64 227 1.7 7.0 0.00 0.02 0.02 80 1013.4
20260902123203 64 227 0.9 4.3 0.00 0.02 0.02 80 1013.4
20260902122803 64 227 1.7 6.1 0.00 0.02 0.02 82 1013.5
20260902122403 64 227 1.7 6.1 0.00 0.02 0.02 84 1013.5
20260902122216 64 227 1.7 6.1 0.00 0.02 0.02 84 1013.5
20260902121603 64 227 1.7 7.0 0.00 0.02 0.02 85 1013.6
20260902121417 64 224 1.7 7.8 0.00 0.02 0.02 84 1013.6
20260902120803 64 192 1.7 7.8 0.01 0.02 0.02 84 1013.6
20260902120618 64 186 1.7 7.8 0.01 0.02 0.02 84 1013.7
20260902120218 64 179 0.9 7.0 0.01 0.02 0.02 86 1013.7
20260902115603 63 178 1.7 7.0 0.01 0.02 0.02 85 1013.7
20260902115417 63 178 1.7 7.0 0.01 0.02 0.02 84 1013.7
20260902114803 63 176 1.7 7.8 0.01 0.02 0.02 86 1013.8
20260902114403 63 180 1.7 7.8 0.02 0.02 0.02 86 1013.8
20260902114003 63 193 0.9 7.8 0.02 0.02 0.02 85 1013.8
20260902113603 63 224 0.9 4.3 0.02 0.02 0.02 87 1013.9
20260902113203 63 224 0.9 7.0 0.02 0.02 0.02 87 1013.9
20260902112803 63 223 1.7 7.0 0.02 0.02 0.02 86 1013.9
20260902112403 63 223 0.9 5.2 0.02 0.02 0.02 88 1014.0
20260902112003 63 223 0.9 5.2 0.02 0.02 0.02 86 1014.0
20260902111603 63 223 0.9 3.5 0.02 0.02 0.02 87 1014.1
20260902111203 63 223 0.0 3.5 0.01 0.01 0.01 86 1014.1
20260902110803 63 223 0.0 1.7 0.01 0.01 0.01 87 1014.1
20260902110403 63 223 0.9 3.5 0.01 0.01 0.01 87 1014.1
20260902110005 63 223 0.9 3.5 0.01 0.01 0.01 85 1014.2
20260902105816 63 223 0.9 3.5 0.01 0.01 0.01 85 1014.2
20260902105203 63 223 0.0 3.5 0.01 0.01 0.01 86 1014.3
20260902105017 63 223 0.0 3.5 0.01 0.01 0.01 85 1014.3
20260902104403 63 225 0.9 7.8 0.00 0.00 0.00 85 1014.3
20260902104003 63 227 1.7 7.8 0.00 0.00 0.00 83 1014.3
20260902103603 63 229 1.7 7.8 0.00 0.00 0.00 83 1014.2
20260902103203 63 229 1.7 7.0 0.00 0.00 0.00 81 1014.2
20260902102803 64 229 2.6 8.7 0.00 0.00 0.00 80 1014.2
20260902102403 64 227 2.6 8.7 0.00 0.00 0.00 79 1014.2
20260902102003 64 226 1.7 8.7 0.00 0.00 0.00 78 1014.2
20260902101603 64 226 0.9 5.2 0.00 0.00 0.00 79 1014.3
20260902101203 64 225 1.7 6.1 0.00 0.00 0.00 79 1014.4
20260902100803 64 225 1.7 6.1 0.00 0.00 0.00 78 1014.4
20260902100403 64 225 1.7 7.0 0.00 0.00 0.00 79 1014.3
20260902100003 64 225 1.7 7.0 0.00 0.00 0.00 79 1014.3
20260902095603 64 225 0.9 5.2 0.00 0.00 0.00 79 1014.3
20260902095203 64 225 0.9 6.1 0.00 0.00 0.00 78 1014.2
20260902094803 64 225 0.9 6.1 0.00 0.00 0.00 78 1014.2
20260902094403 64 224 1.7 8.7 0.00 0.00 0.00 77 1014.3
20260902094003 64 223 1.7 8.7 0.00 0.00 0.00 77 1014.3
20260902093603 64 221 0.9 5.2 0.00 0.00 0.00 77 1014.3
20260902093203 65 221 1.7 5.2 0.00 0.00 0.00 76 1014.3
20260902092803 65 222 1.7 8.7 0.00 0.00 0.00 77 1014.3
20260902092403 65 222 1.7 8.7 0.00 0.00 0.00 76 1014.3
20260902092003 65 224 1.7 8.7 0.00 0.00 0.00 76 1014.3
20260902091603 65 225 2.6 8.7 0.00 0.00 0.00 75 1014.3
20260902091418 65 226 2.6 8.7 0.00 0.00 0.00 75 1014.3
20260902090803 65 234 2.6 7.0 0.00 0.00 0.00 75 1014.2
20260902090403 65 238 1.7 7.0 0.00 0.00 0.00 75 1014.3
20260902090217 65 239 1.7 6.1 0.00 0.00 0.00 77 1014.3
20260902085603 64 240 1.7 5.2 0.00 0.00 0.00 76 1014.4
20260902085418 64 240 1.7 5.2 0.00 0.00 0.00 77 1014.4
20260902084803 64 238 1.7 6.1 0.00 0.00 0.00 77 1014.3
20260902084617 64 237 1.7 6.1 0.00 0.00 0.00 77 1014.4
20260902084003 64 233 0.9 6.1 0.00 0.00 0.00 78 1014.4
20260902083603 64 232 0.9 5.2 0.00 0.00 0.00 80 1014.4
20260902083203 64 231 0.9 6.1 0.00 0.00 0.00 81 1014.4
20260902082803 64 231 1.7 6.1 0.00 0.00 0.00 80 1014.3
20260902082403 64 231 1.7 6.1 0.00 0.00 0.00 81 1014.4
20260902082003 63 231 1.7 5.2 0.00 0.00 0.00 81 1014.3
20260902081603 63 231 1.7 5.2 0.00 0.00 0.00 81 1014.2
20260902081203 63 231 1.7 5.2 0.00 0.00 0.00 81 1014.2
20260902080803 63 231 0.9 5.2 0.00 0.00 0.00 83 1014.2
20260902080403 63 231 0.9 4.3 0.00 0.00 0.00 83 1014.2
20260902080003 62 231 0.9 6.1 0.00 0.00 0.00 83 1014.3
20260902075603 62 232 0.9 6.1 0.00 0.00 0.00 84 1014.3
20260902075418 62 232 0.9 6.1 0.00 0.00 0.00 84 1014.3
20260902074803 62 233 0.9 6.1 0.00 0.00 0.00 84 1014.2
20260902074403 62 233 0.9 6.1 0.00 0.00 0.00 84 1014.2
20260902074003 62 233 0.9 6.1 0.00 0.00 0.00 84 1014.2
20260902073817 62 234 0.9 4.3 0.00 0.00 0.00 84 1014.2
20260902073418 62 234 1.7 5.2 0.00 0.00 0.00 84 1014.2
20260902072803 62 234 1.7 5.2 0.00 0.00 0.00 84 1014.2
20260902072403 62 233 0.9 4.3 0.00 0.00 0.00 84 1014.2
20260902072003 62 233 0.9 3.5 0.00 0.00 0.00 84 1014.2
20260902071603 62 233 0.9 3.5 0.00 0.00 0.00 84 1014.0
20260902071417 62 234 0.9 4.3 0.00 0.00 0.00 85 1014.0
20260902070803 61 234 0.9 4.3 0.00 0.00 0.00 87 1014.0
20260902070403 61 234 0.0 4.3 0.00 0.00 0.00 88 1014.1
20260902070005 60 234 0.0 1.7 0.00 0.00 0.00 89 1014.1
20260902065603 60 234 0.0 3.5 0.00 0.00 0.00 89 1014.1
20260902065203 60 234 0.9 3.5 0.00 0.00 0.00 90 1014.1
20260902064803 60 234 0.0 3.5 0.00 0.00 0.00 90 1014.2
20260902064403 59 234 0.0 3.5 0.00 0.00 0.00 90 1014.2
20260902064003 59 234 0.0 3.5 0.00 0.00 0.00 90 1014.2
20260902063603 59 234 0.0 2.6 0.00 0.00 0.00 90 1014.2
20260902063203 59 234 0.0 1.7 0.00 0.00 0.00 91 1014.2
20260902062803 59 234 0.0 1.7 0.00 0.00 0.00 91 1014.3
20260902062403 58 234 0.0 1.7 0.00 0.00 0.00 91 1014.3
20260902062003 58 234 0.0 1.7 0.00 0.00 0.00 90 1014.3
20260902061817 58 234 0.0 2.6 0.00 0.00 0.00 90 1014.3
20260902061203 58 234 0.0 2.6 0.00 0.00 0.00 90 1014.3
20260902060803 58 0 0.0 0.0 0.00 0.00 0.00 90 1014.3
20260902060403 58 0 0.0 0.0 0.00 0.00 0.00 89 1014.3
20260902060003 58 234 0.0 0.9 0.00 0.00 0.00 89 1014.3
20260902055603 58 234 0.0 0.9 0.00 0.00 0.00 89 1014.2
20260902055417 58 234 0.0 0.9 0.00 0.00 0.00 89 1014.1
20260902054803 58 0 0.0 0.0 0.00 0.00 0.00 89 1014.2
20260902054403 58 0 0.0 0.0 0.00 0.00 0.00 89 1014.1
20260902054003 58 0 0.0 0.0 0.00 0.00 0.00 88 1014.1
20260902053603 58 0 0.0 0.0 0.00 0.00 0.00 88 1013.9
20260902053203 58 234 0.0 0.9 0.00 0.00 0.00 88 1014.0
20260902053017 58 234 0.0 0.9 0.00 0.00 0.00 88 1013.9
20260902052403 59 0 0.0 0.0 0.00 0.00 0.00 88 1013.8
20260902052003 59 0 0.0 0.0 0.00 0.00 0.00 88 1013.8
20260902051603 59 0 0.0 0.0 0.00 0.00 0.00 87 1013.8
20260902051203 59 0 0.0 0.0 0.00 0.00 0.00 87 1013.9
20260902050803 59 0 0.0 0.0 0.00 0.00 0.00 87 1013.8
20260902050403 59 0 0.0 0.0 0.00 0.00 0.00 87 1013.9
20260902050218 59 0 0.0 0.0 0.00 0.00 0.00 87 1013.9
20260902045603 59 234 0.0 1.7 0.00 0.00 0.00 87 1014.0
20260902045203 59 234 0.0 1.7 0.00 0.00 0.00 86 1014.0
20260902044803 59 234 0.0 1.7 0.00 0.00 0.00 86 1014.1
20260902044403 59 234 0.0 2.6 0.00 0.00 0.00 86 1014.0
20260902044003 59 234 0.0 4.3 0.00 0.00 0.00 86 1014.0
20260902043818 59 234 0.0 4.3 0.00 0.00 0.00 86 1014.0
20260902043203 59 234 0.0 4.3 0.00 0.00 0.00 86 1014.0
20260902042803 59 234 0.0 4.3 0.00 0.00 0.00 86 1014.0
20260902042617 59 234 0.9 4.3 0.00 0.00 0.00 86 1014.0
20260902042003 59 233 0.0 4.3 0.00 0.00 0.00 86 1014.0
20260902041818 59 233 0.9 4.3 0.00 0.00 0.00 86 1013.9
20260902041203 60 233 0.9 4.3 0.00 0.00 0.00 86 1013.9
20260902040803 60 233 0.9 6.1 0.00 0.00 0.00 86 1013.9
20260902040403 60 231 0.9 6.1 0.00 0.00 0.00 86 1013.9
20260902040218 60 230 1.7 6.1 0.00 0.00 0.00 86 1013.9
20260902035818 60 229 0.9 4.3 0.00 0.00 0.00 87 1013.9
20260902035203 60 229 0.9 4.3 0.00 0.00 0.00 87 1013.9
20260902034803 60 229 0.9 4.3 0.00 0.00 0.00 87 1013.9
20260902034403 60 229 0.9 4.3 0.00 0.00 0.00 87 1014.0
20260902034003 60 229 0.9 4.3 0.00 0.00 0.00 86 1014.0
20260902033603 60 229 0.9 3.5 0.00 0.00 0.00 86 1014.0
20260902033418 60 229 0.9 5.2 0.00 0.00 0.00 86 1013.9
20260902032803 60 229 1.7 5.2 0.00 0.00 0.00 86 1013.9
20260902032403 60 229 0.9 4.3 0.00 0.00 0.00 86 1013.9
20260902032003 60 229 1.7 5.2 0.00 0.00 0.00 86 1014.0
20260902031603 60 229 1.7 5.2 0.00 0.00 0.00 86 1014.0
20260902031203 60 229 1.7 5.2 0.00 0.00 0.00 86 1013.9
20260902030803 60 229 0.9 5.2 0.00 0.00 0.00 86 1014.0
20260902030403 60 229 0.9 4.3 0.00 0.00 0.00 86 1014.1
20260902030003 60 229 0.9 6.1 0.00 0.00 0.00 86 1014.1
20260902025817 60 229 0.9 6.1 0.00 0.00 0.00 86 1014.1
20260902025203 60 229 0.9 6.1 0.00 0.00 0.00 86 1014.2
20260902024803 60 229 0.0 3.5 0.00 0.00 0.00 86 1014.2
20260902024616 60 229 0.0 2.6 0.00 0.00 0.00 86 1014.2
20260902024003 60 229 0.0 3.5 0.00 0.00 0.00 86 1014.3
20260902023603 60 229 0.9 3.5 0.00 0.00 0.00 86 1014.2
20260902023203 60 229 0.9 3.5 0.00 0.00 0.00 86 1014.2
20260902022803 60 229 0.9 3.5 0.00 0.00 0.00 86 1014.3
20260902022403 60 229 0.9 3.5 0.00 0.00 0.00 86 1014.3
20260902022003 60 229 0.0 3.5 0.00 0.00 0.00 86 1014.3
20260902021603 60 229 0.0 2.6 0.00 0.00 0.00 86 1014.3
20260902021203 60 229 0.0 2.6 0.00 0.00 0.00 86 1014.4
20260902020803 60 229 0.9 3.5 0.00 0.00 0.00 86 1014.4
20260902020403 60 229 0.9 4.3 0.00 0.00 0.00 86 1014.4
20260902020003 60 229 0.9 5.2 0.00 0.00 0.00 86 1014.4
20260902015603 60 229 0.9 5.2 0.00 0.00 0.00 86 1014.4
20260902015203 60 229 0.9 5.2 0.00 0.00 0.00 86 1014.4
20260902014803 60 229 0.9 5.2 0.00 0.00 0.00 85 1014.4
20260902014403 60 229 0.9 5.2 0.00 0.00 0.00 85 1014.4
20260902014003 60 229 0.9 4.3 0.00 0.00 0.00 85 1014.3
20260902013603 61 229 1.7 4.3 0.00 0.00 0.00 85 1014.3
20260902013417 61 229 0.9 4.3 0.00 0.00 0.00 85 1014.4
20260902012803 60 229 0.9 3.5 0.00 0.00 0.00 85 1014.4
20260902012403 61 229 0.9 3.5 0.00 0.00 0.00 85 1014.4
20260902012216 61 229 0.9 3.5 0.00 0.00 0.00 85 1014.4
20260902011603 61 229 0.9 7.0 0.00 0.00 0.00 85 1014.4
20260902011203 61 229 1.7 7.0 0.00 0.00 0.00 85 1014.4
20260902010803 60 229 1.7 7.0 0.00 0.00 0.00 85 1014.4
20260902010618 60 229 1.7 6.1 0.00 0.00 0.00 85 1014.3
20260902010003 60 229 0.9 5.2 0.00 0.00 0.00 86 1014.4
20260902005603 60 229 0.9 5.2 0.00 0.00 0.00 86 1014.4
20260902005203 60 229 0.9 4.3 0.00 0.00 0.00 86 1014.4
20260902004803 60 229 0.0 4.3 0.00 0.00 0.00 86 1014.4
20260902004403 60 229 0.0 3.5 0.00 0.00 0.00 87 1014.3
20260902004218 60 229 0.0 1.7 0.00 0.00 0.00 87 1014.3
20260902003603 60 229 0.0 1.7 0.00 0.00 0.00 87 1014.3
20260902003203 60 229 0.0 0.9 0.00 0.00 0.00 87 1014.4
20260902002803 60 229 0.0 1.7 0.00 0.00 0.00 87 1014.4
20260902002618 60 229 0.0 1.7 0.00 0.00 0.00 87 1014.4
20260902002003 60 229 0.0 1.7 0.00 0.00 0.00 87 1014.5
20260902001816 60 229 0.0 1.7 0.00 0.00 0.00 87 1014.5
20260902001203 60 229 0.0 0.9 0.00 0.00 0.00 87 1014.5
20260902000803 60 229 0.0 0.9 0.00 0.00 0.00 87 1014.5
20260902000403 60 229 0.0 1.7 0.00 0.00 0.00 87 1014.5
20260902000003 60 229 0.0 2.6 0.00 0.00 0.00 87 1014.5
20260901235603 60 229 0.0 3.5 0.00 0.00 0.00 87 1014.4
20260901235203 60 229 0.0 3.5 0.00 0.00 0.00 87 1014.5
20260901234803 60 229 0.9 5.2 0.00 0.00 0.00 87 1014.6
20260901234403 60 229 0.9 5.2 0.00 0.00 0.00 87 1014.6
20260901234003 60 229 0.9 5.2 0.00 0.00 0.00 87 1014.6
20260901233603 60 228 0.9 3.5 0.00 0.00 0.00 87 1014.6
20260901233416 60 228 0.9 3.5 0.00 0.00 0.00 87 1014.6
20260901232803 61 228 0.9 3.5 0.00 0.00 0.00 87 1014.6
20260901232403 61 228 0.9 7.8 0.00 0.00 0.00 87 1014.6
20260901232003 61 227 1.7 7.8 0.00 0.00 0.00 87 1014.6
20260901231604 61 227 1.7 6.1 0.00 0.00 0.00 87 1014.6
20260901231416 61 227 1.7 6.1 0.00 0.00 0.00 87 1014.6
20260901230803 61 226 0.9 5.2 0.00 0.00 0.00 87 1014.6
20260901230617 61 226 0.9 5.2 0.00 0.00 0.00 87 1014.6
20260901230004 61 227 1.7 8.7 0.00 0.00 0.00 86 1014.6
20260901225603 61 232 1.7 8.7 0.00 0.00 0.00 86 1014.6
20260901225203 61 237 1.7 8.7 0.00 0.00 0.00 86 1014.6
20260901224803 61 238 2.6 7.0 0.00 0.00 0.00 86 1014.6
20260901224403 61 238 1.7 7.0 0.00 0.00 0.00 86 1014.5
20260901224003 61 238 0.9 5.2 0.00 0.00 0.00 86 1014.6
20260901223603 61 237 0.9 5.2 0.00 0.00 0.00 86 1014.5
20260901223203 61 237 0.9 4.3 0.00 0.00 0.00 86 1014.6
20260901222803 61 237 0.9 3.5 0.00 0.00 0.00 85 1014.5
20260901222403 61 237 0.9 4.3 0.00 0.00 0.00 85 1014.6
20260901222003 61 237 0.9 4.3 0.00 0.00 0.00 85 1014.6
20260901221603 61 237 0.9 4.3 0.00 0.00 0.00 84 1014.5
20260901221203 61 237 0.9 3.5 0.00 0.00 0.00 84 1014.5
20260901220803 61 237 0.9 3.5 0.00 0.00 0.00 84 1014.5
20260901220403 61 237 0.9 4.3 0.00 0.00 0.00 84 1014.6
20260901220003 61 237 0.0 4.3 0.00 0.00 0.00 84 1014.6
20260901215603 61 237 0.0 4.3 0.00 0.00 0.00 84 1014.6
20260901215418 61 237 0.9 4.3 0.00 0.00 0.00 84 1014.6
20260901214803 61 237 0.9 4.3 0.00 0.00 0.00 84 1014.7
20260901214617 61 237 0.9 4.3 0.00 0.00 0.00 84 1014.7
20260901214003 61 237 0.0 4.3 0.00 0.00 0.00 84 1014.8
20260901213603 61 237 0.0 2.6 0.00 0.00 0.00 83 1014.8
20260901213418 61 237 0.0 2.6 0.00 0.00 0.00 83 1014.9
20260901212803 61 237 0.0 3.5 0.00 0.00 0.00 83 1014.9
20260901212403 61 237 0.0 3.5 0.00 0.00 0.00 83 1015.0
20260901212003 61 238 0.9 5.2 0.00 0.00 0.00 83 1015.0
20260901211603 61 238 0.9 5.2 0.00 0.00 0.00 83 1014.9
20260901211203 61 237 0.0 5.2 0.00 0.00 0.00 83 1014.9
20260901210803 61 237 0.0 1.7 0.00 0.00 0.00 83 1014.9
20260901210403 61 237 0.0 0.9 0.00 0.00 0.00 83 1014.9
20260901210003 61 237 0.0 1.7 0.00 0.00 0.00 83 1014.9
20260901205603 61 237 0.0 5.2 0.00 0.00 0.00 83 1014.9
20260901205203 61 237 0.9 5.2 0.00 0.00 0.00 82 1014.9
20260901204803 61 237 0.0 3.5 0.00 0.00 0.00 82 1015.0
20260901204403 61 237 0.0 3.5 0.00 0.00 0.00 82 1014.9
20260901204003 61 237 0.0 3.5 0.00 0.00 0.00 82 1014.9
20260901203603 61 237 0.0 3.5 0.00 0.00 0.00 82 1015.0
20260901203417 61 237 0.0 3.5 0.00 0.00 0.00 82 1015.0
20260901202803 61 237 0.0 3.5 0.00 0.00 0.00 81 1014.9
20260901202403 62 237 0.0 3.5 0.00 0.00 0.00 81 1014.9
20260901202216 61 237 0.0 2.6 0.00 0.00 0.00 81 1014.9
20260901201603 62 237 0.9 2.6 0.00 0.00 0.00 81 1014.8
20260901201203 62 237 0.9 6.1 0.00 0.00 0.00 81 1014.9
20260901201018 62 237 0.9 6.1 0.00 0.00 0.00 81 1014.8
20260901200403 62 236 0.9 6.1 0.00 0.00 0.00 80 1014.9
20260901200003 62 236 0.9 4.3 0.00 0.00 0.00 80 1014.8
20260901195603 62 236 0.9 4.3 0.00 0.00 0.00 80 1014.8
20260901195417 62 236 0.9 4.3 0.00 0.00 0.00 80 1014.8
20260901194803 62 236 0.9 7.0 0.00 0.00 0.00 79 1014.8
20260901194403 62 237 1.7 8.7 0.00 0.00 0.00 79 1014.6
20260901194218 62 237 1.7 8.7 0.00 0.00 0.00 79 1014.7
20260901193603 62 238 1.7 6.1 0.00 0.00 0.00 79 1014.8
20260901193203 62 238 1.7 6.1 0.00 0.00 0.00 79 1014.8
20260901192803 62 238 1.7 6.1 0.00 0.00 0.00 79 1014.7
20260901192403 62 238 1.7 6.1 0.00 0.00 0.00 79 1014.6
20260901192003 62 239 1.7 7.0 0.00 0.00 0.00 78 1014.7
20260901191603 62 239 1.7 7.0 0.00 0.00 0.00 78 1014.7
20260901191203 62 238 1.7 7.0 0.00 0.00 0.00 78 1014.6
20260901190803 62 238 1.7 7.8 0.00 0.00 0.00 78 1014.6
20260901190618 62 240 1.7 7.8 0.00 0.00 0.00 78 1014.7
20260901190218 62 246 2.6 7.8 0.00 0.00 0.00 77 1014.7
20260901185603 62 253 1.7 7.8 0.00 0.00 0.00 77 1014.8
20260901185203 62 255 2.6 7.0 0.00 0.00 0.00 77 1014.6
20260901184803 62 259 2.6 7.8 0.00 0.00 0.00 77 1014.6
20260901184403 63 252 2.6 7.8 0.00 0.00 0.00 77 1014.5
20260901184003 63 233 2.6 7.8 0.00 0.00 0.00 77 1014.5
20260901183603 63 217 2.6 6.1 0.00 0.00 0.00 77 1014.5
20260901183203 63 222 2.6 7.8 0.00 0.00 0.00 77 1014.5
20260901183017 63 227 2.6 7.8 0.00 0.00 0.00 76 1014.4
20260901182403 63 260 1.7 7.8 0.00 0.00 0.00 77 1014.4
20260901182003 63 261 2.6 9.6 0.00 0.00 0.00 77 1014.4
20260901181603 63 240 2.6 12.2 0.00 0.00 0.00 77 1014.5
20260901181203 63 228 2.6 12.2 0.00 0.00 0.00 77 1014.4
20260901180803 63 212 1.7 6.1 0.00 0.00 0.00 77 1014.4
20260901180403 63 209 2.6 7.0 0.00 0.00 0.00 77 1014.4
20260901180218 63 222 2.6 10.4 0.00 0.00 0.00 77 1014.4
20260901175603 63 239 2.6 10.4 0.00 0.00 0.00 77 1014.4
20260901175203 63 242 2.6 10.4 0.00 0.00 0.00 77 1014.3
20260901174803 63 245 2.6 7.0 0.00 0.00 0.00 77 1014.4
20260901174403 63 243 2.6 7.0 0.00 0.00 0.00 76 1014.3